createdAt,value
2022-12-23T00:01:06.124Z,12.73
2022-12-23T00:08:30.802Z,12.76
2022-12-23T00:13:27.327Z,12.75
2022-12-23T00:17:21.903Z,12.78
2022-12-23T00:20:14.987Z,12.78
2022-12-23T00:22:43.252Z,12.78
2022-12-23T00:25:11.560Z,12.78
2022-12-23T00:27:39.732Z,12.77
2022-12-23T00:30:07.957Z,12.76
2022-12-23T00:33:14.279Z,12.76
2022-12-23T00:35:41.572Z,12.76
2022-12-23T00:38:09.773Z,12.77
2022-12-23T00:45:34.641Z,12.78
2022-12-23T00:50:31.002Z,12.77
2022-12-23T00:54:13.440Z,12.76
2022-12-23T00:56:33.457Z,12.75
2022-12-23T00:59:38.768Z,12.75
2022-12-23T01:02:44.237Z,12.76
2022-12-23T01:06:26.435Z,12.74
2022-12-23T01:10:08.821Z,12.75
2022-12-23T01:13:51.167Z,12.75
2022-12-23T01:16:19.473Z,12.72
2022-12-23T01:20:38.828Z,12.71
2022-12-23T01:25:35.370Z,12.71
2022-12-23T01:31:08.965Z,12.72
2022-12-23T01:34:14.171Z,12.67
2022-12-23T01:36:42.451Z,12.67
2022-12-23T01:39:10.691Z,12.62
2022-12-23T01:42:16.026Z,12.61
2022-12-23T01:44:44.224Z,12.61
2022-12-23T01:47:49.598Z,12.64
2022-12-23T01:50:54.884Z,12.68
2022-12-23T01:54:00.203Z,12.67
2022-12-23T02:03:36.862Z,12.74
2022-12-23T02:09:10.348Z,12.75
2022-12-23T02:12:15.679Z,12.77
2022-12-23T02:15:58.038Z,12.79
2022-12-23T02:19:03.347Z,12.8
2022-12-23T02:24:36.878Z,12.79
2022-12-23T02:29:33.404Z,12.77
2022-12-23T02:33:15.764Z,12.78
2022-12-23T02:35:44.014Z,12.78
2022-12-23T02:38:12.265Z,12.8
2022-12-23T02:40:40.517Z,12.8
2022-12-23T02:43:08.731Z,12.8
2022-12-23T02:46:14.203Z,12.81
2022-12-23T02:48:42.340Z,12.81
2022-12-23T02:51:10.545Z,12.81
2022-12-23T02:54:52.894Z,12.81
2022-12-23T02:57:58.261Z,12.81
2022-12-23T03:01:03.615Z,12.78
2022-12-23T03:04:08.893Z,12.77
2022-12-23T03:15:36.686Z,12.7
2022-12-23T03:18:04.900Z,12.72
2022-12-23T03:21:10.217Z,12.68
2022-12-23T03:24:15.522Z,12.7
2022-12-23T03:26:43.781Z,12.71
2022-12-23T03:29:12.216Z,12.71
2022-12-23T03:31:40.332Z,12.71
2022-12-23T03:34:08.508Z,12.75
2022-12-23T03:37:13.788Z,12.72
2022-12-23T03:39:42.101Z,12.7
2022-12-23T03:42:10.296Z,12.69
2022-12-23T03:45:39.003Z,12.66
2022-12-23T03:47:43.865Z,12.68
2022-12-23T03:50:12.112Z,12.71
2022-12-23T03:52:40.364Z,12.73
2022-12-23T03:55:08.576Z,12.73
2022-12-23T03:58:51.054Z,12.74
2022-12-23T04:01:56.453Z,12.74
2022-12-23T04:05:01.616Z,12.7
2022-12-23T04:08:06.890Z,12.71
2022-12-23T04:11:49.342Z,12.71
2022-12-23T04:14:17.521Z,12.72
2022-12-23T04:20:28.150Z,12.66
2022-12-23T04:27:15.855Z,12.67
2022-12-23T04:33:26.741Z,12.65
2022-12-23T04:39:37.060Z,12.63
2022-12-23T04:43:56.544Z,12.72
2022-12-23T04:47:01.832Z,12.67
2022-12-23T04:50:35.969Z,12.69
2022-12-23T04:55:32.486Z,12.67
2022-12-23T05:03:34.315Z,12.66
2022-12-23T05:06:02.514Z,12.66
2022-12-23T05:09:07.818Z,12.68
2022-12-23T05:12:50.236Z,12.68
2022-12-23T05:19:37.903Z,12.76
2022-12-23T05:24:34.372Z,12.72
2022-12-23T05:28:16.719Z,12.74
2022-12-23T05:31:59.213Z,12.76
2022-12-23T05:34:27.371Z,12.77
2022-12-23T05:38:09.730Z,12.77
2022-12-23T05:42:29.206Z,12.73
2022-12-23T05:45:34.557Z,12.7
2022-12-23T05:51:08.065Z,12.68
2022-12-23T05:55:27.489Z,12.67
2022-12-23T06:01:38.207Z,12.66
2022-12-23T06:05:20.466Z,12.65
2022-12-23T06:07:48.791Z,12.66
2022-12-23T06:16:27.733Z,12.69
2022-12-23T06:22:38.233Z,12.69
2022-12-23T06:26:57.736Z,12.66
2022-12-23T06:30:02.921Z,12.68
2022-12-23T06:33:08.220Z,12.69
2022-12-23T06:37:27.685Z,12.67
2022-12-23T06:43:38.284Z,12.68
2022-12-23T06:49:32.577Z,12.69
2022-12-23T06:52:00.759Z,12.68
2022-12-23T06:55:06.095Z,12.71
2022-12-23T06:58:48.489Z,12.7
2022-12-23T07:06:13.219Z,12.63
2022-12-23T07:10:32.645Z,12.63
2022-12-23T07:13:00.865Z,12.68
2022-12-23T07:16:06.254Z,12.59
2022-12-23T07:19:11.469Z,12.61
2022-12-23T07:22:16.826Z,12.63
2022-12-23T07:24:45.056Z,12.64
2022-12-23T07:28:27.436Z,12.64
2022-12-23T07:34:38.030Z,12.65
2022-12-23T07:38:20.418Z,12.65
2022-12-23T07:40:48.681Z,12.65
2022-12-23T07:43:53.982Z,12.65
2022-12-23T07:46:59.314Z,12.65
2022-12-23T07:51:55.813Z,12.67
2022-12-23T07:55:38.170Z,12.67
2022-12-23T08:00:34.697Z,12.67
2022-12-23T08:04:08.848Z,12.66
2022-12-23T08:07:14.161Z,12.65
2022-12-23T08:10:56.506Z,12.64
2022-12-23T08:14:01.850Z,12.65
2022-12-23T08:17:07.132Z,12.63
2022-12-23T08:20:12.418Z,12.64
2022-12-23T08:22:40.693Z,12.64
2022-12-23T08:25:08.944Z,12.65
2022-12-23T08:28:14.226Z,12.65
2022-12-23T08:30:42.539Z,12.65
2022-12-23T08:35:38.990Z,12.65
2022-12-23T08:40:35.495Z,12.65
2022-12-23T08:44:54.896Z,12.65
2022-12-23T08:48:00.201Z,12.65
2022-12-23T08:51:42.669Z,12.64
2022-12-23T08:54:47.982Z,12.66
2022-12-23T09:06:32.078Z,12.43
2022-12-23T09:09:00.325Z,12.71
2022-12-23T09:11:28.572Z,12.73
2022-12-23T09:15:10.901Z,12.72
2022-12-23T09:18:16.270Z,12.74
2022-12-23T09:20:44.458Z,12.73
2022-12-23T09:24:26.906Z,12.73
2022-12-23T09:28:29.904Z,12.74
2022-12-23T09:34:03.690Z,12.76
2022-12-23T09:37:08.842Z,12.78
2022-12-23T09:40:14.121Z,12.78
2022-12-23T09:42:42.323Z,12.77
2022-12-23T09:45:10.572Z,12.79
2022-12-23T09:48:52.955Z,12.79
2022-12-23T09:51:58.325Z,12.8
2022-12-23T09:55:03.585Z,12.81
2022-12-23T09:58:08.930Z,12.82
2022-12-23T10:01:14.221Z,12.81
2022-12-23T10:03:42.600Z,12.82
2022-12-23T10:06:10.690Z,12.82
2022-12-23T10:09:16.011Z,12.83
2022-12-23T10:11:44.233Z,12.83
2022-12-23T10:14:12.516Z,12.85
2022-12-23T10:16:40.790Z,12.83
2022-12-23T10:21:00.179Z,12.83
2022-12-23T10:26:33.752Z,12.86
2022-12-23T10:31:40.115Z,12.86
2022-12-23T10:33:58.464Z,12.87
2022-12-23T10:38:46.774Z,12.88
2022-12-23T10:41:15.028Z,12.9
2022-12-23T10:43:43.272Z,12.91
2022-12-23T10:47:25.650Z,12.92
2022-12-23T10:53:36.917Z,12.91
2022-12-23T11:01:38.119Z,12.92
2022-12-23T11:06:37.364Z,12.93
2022-12-23T11:09:02.741Z,12.93
2022-12-23T11:12:45.189Z,12.94
2022-12-23T11:15:13.391Z,12.94
2022-12-23T11:17:41.664Z,12.93
2022-12-23T11:20:09.906Z,12.94
2022-12-23T11:23:52.295Z,12.94
2022-12-23T11:27:34.656Z,12.93
2022-12-23T11:30:02.913Z,12.93
2022-12-23T11:33:08.191Z,12.92
2022-12-23T11:36:54.558Z,12.93
2022-12-23T11:40:32.957Z,12.94
2022-12-23T11:44:15.329Z,12.92
2022-12-23T11:48:34.841Z,12.93
2022-12-23T11:53:31.228Z,12.94
2022-12-23T11:59:00.768Z,12.94
2022-12-23T12:02:06.044Z,12.94
2022-12-23T12:05:11.342Z,12.95
2022-12-23T12:09:30.755Z,12.95
2022-12-23T12:14:27.234Z,12.95
2022-12-23T12:25:38.030Z,12.96
2022-12-23T12:33:36.450Z,12.96
2022-12-23T12:39:09.781Z,12.97
2022-12-23T12:43:29.122Z,12.98
2022-12-23T12:49:02.731Z,12.99
2022-12-23T12:55:13.315Z,13.01
2022-12-23T13:00:09.818Z,13.01
2022-12-23T13:03:15.175Z,13.03
2022-12-23T13:05:45.972Z,13.02
2022-12-23T13:08:48.710Z,13.03
2022-12-23T13:11:54.022Z,13.05
2022-12-23T13:14:59.351Z,13.06
2022-12-23T13:18:41.679Z,13.05
2022-12-23T13:26:06.452Z,13.06
2022-12-23T13:31:02.958Z,13.09
2022-12-23T13:36:36.568Z,13.09
2022-12-23T13:38:56.538Z,13.11
2022-12-23T13:42:05.451Z,13.11
2022-12-23T13:45:44.189Z,13.12
2022-12-23T13:48:12.462Z,13.13
2022-12-23T13:53:08.925Z,13.14
2022-12-23T13:57:28.339Z,13.16
2022-12-23T14:00:33.740Z,13.15
2022-12-23T14:03:02.048Z,13.16
2022-12-23T14:06:07.240Z,13.16
2022-12-23T14:09:12.542Z,13.17
2022-12-23T14:12:54.954Z,13.18
2022-12-23T14:16:37.321Z,13.19
2022-12-23T14:22:47.918Z,13.21
2022-12-23T14:25:16.166Z,13.24
2022-12-23T14:30:12.677Z,13.26
2022-12-23T14:32:40.873Z,13.28
2022-12-23T14:37:49.858Z,13.35
2022-12-23T14:44:37.554Z,13.36
2022-12-23T14:49:39.365Z,13.42
2022-12-23T14:52:02.302Z,13.17
2022-12-23T14:55:29.459Z,13.53
2022-12-23T14:58:12.929Z,13.58
2022-12-23T15:00:41.170Z,11.97
2022-12-23T15:05:00.618Z,13.61
2022-12-23T15:08:05.901Z,13.62
2022-12-23T15:11:11.216Z,13.64
2022-12-23T15:14:53.581Z,13.69
2022-12-23T15:20:27.168Z,13.72
2022-12-23T15:24:09.576Z,13.72
2022-12-23T15:26:37.955Z,13.73
2022-12-23T15:30:20.189Z,13.74
2022-12-23T15:32:48.390Z,13.75
2022-12-23T15:37:07.808Z,13.7
2022-12-23T15:40:13.776Z,13.68
2022-12-23T15:42:33.203Z,13.68
2022-12-23T15:45:01.451Z,13.68
2022-12-23T15:48:43.826Z,13.69
2022-12-23T15:51:12.080Z,13.73
2022-12-23T15:55:31.509Z,13.8
2022-12-23T16:03:33.408Z,13.86
2022-12-23T16:06:01.596Z,13.72
2022-12-23T16:11:35.130Z,13.87
2022-12-23T16:16:31.689Z,13.85
2022-12-23T16:21:28.100Z,13.85
2022-12-23T16:23:56.343Z,13.87
2022-12-23T16:27:01.649Z,13.88
2022-12-23T16:30:06.941Z,13.85
2022-12-23T16:33:12.386Z,13.85
2022-12-23T16:35:40.485Z,13.84
2022-12-23T16:38:08.810Z,13.84
2022-12-23T16:41:14.078Z,13.81
2022-12-23T16:43:34.248Z,13.82
2022-12-23T16:46:02.434Z,13.8
2022-12-23T16:53:31.229Z,13.8
2022-12-23T16:58:27.678Z,13.79
2022-12-23T17:06:29.520Z,13.78
2022-12-23T17:17:36.637Z,13.81
2022-12-23T17:22:33.119Z,13.83
2022-12-23T17:28:06.676Z,13.85
2022-12-23T17:31:14.851Z,13.87
2022-12-23T17:33:40.207Z,13.59
2022-12-23T17:40:27.898Z,13.88
2022-12-23T17:46:22.199Z,13.88
2022-12-23T17:52:32.742Z,13.87
2022-12-23T17:57:29.265Z,13.89
2022-12-23T18:09:13.431Z,13.93
2022-12-23T18:14:09.969Z,13.96
2022-12-23T18:19:06.427Z,13.96
2022-12-23T18:22:11.701Z,13.95
2022-12-23T18:24:39.968Z,13.95
2022-12-23T18:27:08.227Z,13.94
2022-12-23T18:32:04.828Z,13.93
2022-12-23T18:35:10.029Z,13.91
2022-12-23T18:38:15.410Z,13.9
2022-12-23T18:40:43.565Z,13.88
2022-12-23T18:43:07.776Z,13.86
2022-12-23T18:46:13.153Z,13.85
2022-12-23T18:48:41.308Z,13.85
2022-12-23T18:51:46.631Z,13.87
2022-12-23T18:54:51.908Z,13.8
2022-12-23T18:57:57.236Z,13.8
2022-12-23T19:01:02.596Z,13.78
2022-12-23T19:04:07.799Z,13.76
2022-12-23T19:07:50.215Z,13.77
2022-12-23T19:10:55.495Z,13.76
2022-12-23T19:14:00.837Z,13.77
2022-12-23T19:17:06.138Z,13.74
2022-12-23T19:20:11.430Z,13.75
2022-12-23T19:23:53.810Z,13.74
2022-12-23T19:26:59.096Z,13.72
2022-12-23T19:30:41.594Z,13.73
2022-12-23T19:35:37.951Z,13.73
2022-12-23T19:40:34.463Z,13.69
2022-12-23T19:43:02.712Z,13.67
2022-12-23T19:48:36.295Z,13.62
2022-12-23T19:53:32.770Z,13.51
2022-12-23T20:00:12.352Z,13.48
2022-12-23T20:15:38.779Z,13.4
2022-12-23T20:20:35.294Z,13.38
2022-12-23T20:30:28.301Z,13.34
2022-12-23T20:33:33.574Z,13.35
2022-12-23T20:36:38.924Z,13.35
2022-12-23T20:40:21.273Z,13.34
2022-12-23T20:51:28.348Z,13.37
2022-12-23T20:59:50.863Z,13.33
2022-12-23T21:02:56.216Z,13.33
2022-12-23T21:07:15.609Z,13.31
2022-12-23T21:09:43.881Z,13.31
2022-12-23T21:12:12.118Z,13.3
2022-12-23T21:14:40.372Z,13.3
2022-12-23T21:17:08.607Z,13.28
2022-12-23T21:20:13.921Z,13.29
2022-12-23T21:22:42.170Z,13.31
2022-12-23T21:25:10.383Z,13.31
2022-12-23T21:28:52.872Z,13.32
2022-12-23T21:31:58.260Z,13.27
2022-12-23T21:35:03.384Z,13.24
2022-12-23T21:38:45.767Z,13.25
2022-12-23T21:41:14.062Z,13.24
2022-12-23T21:43:42.241Z,13.25
2022-12-23T21:46:10.512Z,13.23
2022-12-23T21:49:15.837Z,13.22
2022-12-23T21:51:44.073Z,13.22
2022-12-23T21:54:12.292Z,13.22
2022-12-23T21:56:32.338Z,13.22
2022-12-23T21:59:00.701Z,13.22
2022-12-23T22:03:57.165Z,13.22
2022-12-23T22:07:02.418Z,13.19
2022-12-23T22:10:07.707Z,13.21
2022-12-23T22:13:13.046Z,13.23
2022-12-23T22:15:41.271Z,13.79
2022-12-23T22:18:09.535Z,13.23
2022-12-23T22:21:51.878Z,13.25
2022-12-23T22:26:11.327Z,13.2
2022-12-23T22:29:16.631Z,13.18
2022-12-23T22:31:44.981Z,13.17
2022-12-23T22:34:13.121Z,13.1
2022-12-23T22:36:41.405Z,13.09
2022-12-23T22:43:29.023Z,13.04
2022-12-23T22:50:16.749Z,13.07
2022-12-23T22:55:13.223Z,13.09
2022-12-23T22:59:32.682Z,13.07
2022-12-23T23:03:15.050Z,13.05
2022-12-23T23:05:43.367Z,13.03
2022-12-23T23:08:03.305Z,12.99
2022-12-23T23:11:08.642Z,13.02
2022-12-23T23:14:13.941Z,13.04
2022-12-23T23:17:56.311Z,13.04
2022-12-23T23:21:01.663Z,13.05
2022-12-23T23:24:06.927Z,13.13
2022-12-23T23:27:12.241Z,13.11
2022-12-23T23:29:40.489Z,13.09
2022-12-23T23:32:08.763Z,13.09
2022-12-23T23:35:14.055Z,13.11
2022-12-23T23:37:42.282Z,13.11
2022-12-23T23:40:10.538Z,13.09
2022-12-23T23:49:26.474Z,13.1
2022-12-23T23:57:28.325Z,13.02
